Time;durP1;ratioP1;P1;durP2;ratioP2;P2;SDS_P1;SDS_P2;PMS_P1;PMS_P2;Temp;Humidity;BMP_temperature;BMP_pressure;BME280_temperature;BME280_humidity;BME280_pressure;Samples;Min_cycle;Max_cycle;Signal;HPM_P1;HPM_P2
2020/12/06 00:01:06;;;;;;;35.87;20.13;;;2.40;97.10;;;;;;4994651;28;20236;-90
2020/12/06 00:03:35;;;;;;;34.40;20.70;;;2.50;97.40;;;;;;4995059;28;20679;-87
2020/12/06 00:06:01;;;;;;;30.13;20.03;;;2.40;97.40;;;;;;5003042;28;20207;-87
2020/12/06 00:08:28;;;;;;;29.53;21.10;;;2.40;97.60;;;;;;4999032;28;20241;-86
2020/12/06 00:10:54;;;;;;;31.03;20.13;;;2.50;97.70;;;;;;4996183;28;20204;-85
2020/12/06 00:13:22;;;;;;;27.60;19.43;;;2.50;97.00;;;;;;4999417;28;20232;-90
2020/12/06 00:15:48;;;;;;;31.03;20.20;;;2.50;97.20;;;;;;5003354;28;20568;-86
2020/12/06 00:18:16;;;;;;;26.77;19.37;;;2.70;97.40;;;;;;5002005;28;20260;-85
2020/12/06 00:20:42;;;;;;;28.93;19.10;;;2.80;97.20;;;;;;4998360;28;20200;-86
2020/12/06 00:23:09;;;;;;;28.33;19.80;;;2.70;97.20;;;;;;5005106;28;20219;-86
2020/12/06 00:25:35;;;;;;;28.03;19.37;;;2.70;96.40;;;;;;5001490;28;20847;-86
2020/12/06 00:28:02;;;;;;;27.27;19.60;;;2.70;97.20;;;;;;5000457;28;20228;-87
2020/12/06 00:30:29;;;;;;;26.07;18.57;;;2.60;96.80;;;;;;5001036;28;20237;-86
2020/12/06 00:32:55;;;;;;;26.20;18.90;;;2.70;97.10;;;;;;4998570;28;20294;-85
2020/12/06 00:35:22;;;;;;;27.33;19.43;;;2.70;96.60;;;;;;5008515;28;20204;-88
2020/12/06 00:37:48;;;;;;;24.43;18.17;;;2.60;97.10;;;;;;4996875;28;20323;-87
2020/12/06 00:40:15;;;;;;;28.13;19.50;;;2.70;96.60;;;;;;5000404;28;20208;-86
2020/12/06 00:42:41;;;;;;;23.97;17.87;;;2.60;96.70;;;;;;5004877;28;20311;-89
2020/12/06 00:45:08;;;;;;;26.57;18.93;;;2.60;97.20;;;;;;4997770;28;20211;-87
2020/12/06 00:47:37;;;;;;;25.13;18.23;;;2.70;96.70;;;;;;4998664;28;20231;-88
2020/12/06 00:50:06;;;;;;;24.97;17.93;;;2.70;96.70;;;;;;4997625;28;20214;-85
2020/12/06 00:52:33;;;;;;;23.43;18.07;;;2.60;96.40;;;;;;4996891;28;20671;-88
2020/12/06 00:54:59;;;;;;;25.27;18.93;;;2.80;97.10;;;;;;5002699;28;20202;-88
2020/12/06 00:57:26;;;;;;;23.87;17.63;;;2.90;96.90;;;;;;4997406;28;20234;-85
2020/12/06 00:59:52;;;;;;;24.97;18.03;;;2.90;96.70;;;;;;5002244;28;20238;-87
2020/12/06 01:02:18;;;;;;;24.67;17.57;;;2.80;96.30;;;;;;4998227;28;20219;-86
2020/12/06 01:04:46;;;;;;;25.33;18.33;;;2.80;96.50;;;;;;4994742;28;20213;-86
2020/12/06 01:07:13;;;;;;;25.63;18.50;;;2.80;96.40;;;;;;4992081;28;20216;-85
2020/12/06 01:09:40;;;;;;;23.93;17.83;;;2.80;97.20;;;;;;4997976;28;20216;-87
2020/12/06 01:12:06;;;;;;;25.60;18.30;;;2.70;97.10;;;;;;5006271;28;20247;-86
2020/12/06 01:14:33;;;;;;;26.03;17.93;;;2.70;97.70;;;;;;4998978;28;20208;-85
2020/12/06 01:16:59;;;;;;;28.50;19.80;;;2.90;97.60;;;;;;4997393;28;20588;-88
2020/12/06 01:19:26;;;;;;;25.83;18.97;;;2.80;96.70;;;;;;5002189;28;20230;-87
2020/12/06 01:21:53;;;;;;;28.20;19.33;;;2.70;96.90;;;;;;4993329;28;20310;-88
2020/12/06 01:24:20;;;;;;;24.97;18.20;;;2.80;97.80;;;;;;4999478;28;20210;-92
2020/12/06 01:26:47;;;;;;;25.37;18.50;;;2.80;97.30;;;;;;4994921;28;20583;-87
2020/12/06 01:29:13;;;;;;;28.73;19.77;;;2.90;97.80;;;;;;4994677;28;20223;-86
2020/12/06 01:31:44;;;;;;;26.07;18.53;;;3.00;97.30;;;;;;4997293;28;20919;-86
2020/12/06 01:34:10;;;;;;;28.27;20.17;;;2.90;96.60;;;;;;4997042;28;20212;-85
2020/12/06 01:36:36;;;;;;;28.20;19.70;;;2.80;96.70;;;;;;5000513;28;20228;-88
2020/12/06 01:39:05;;;;;;;28.17;19.13;;;2.60;96.90;;;;;;4998368;28;20214;-86
2020/12/06 01:41:31;;;;;;;27.03;19.73;;;2.60;97.40;;;;;;5003642;28;20582;-85
2020/12/06 01:43:58;;;;;;;26.80;18.67;;;2.50;97.40;;;;;;4996149;28;20207;-85
2020/12/06 01:46:25;;;;;;;27.67;19.60;;;2.50;98.40;;;;;;4994668;28;20620;-88
2020/12/06 01:48:54;;;;;;;26.80;19.47;;;2.50;98.00;;;;;;4992438;28;20220;-88
2020/12/06 01:51:22;;;;;;;25.67;18.20;;;2.60;98.00;;;;;;4992327;28;20234;-87
2020/12/06 01:53:50;;;;;;;27.67;19.63;;;2.80;98.20;;;;;;4994969;28;20389;-85
2020/12/06 01:56:17;;;;;;;27.03;19.57;;;2.70;97.30;;;;;;4992579;28;20299;-88
2020/12/06 01:58:44;;;;;;;28.30;19.43;;;2.60;97.30;;;;;;4982766;28;20236;-87
2020/12/06 02:01:11;;;;;;;26.90;18.80;;;2.60;98.20;;;;;;5001176;28;20720;-86
2020/12/06 02:03:38;;;;;;;25.23;18.60;;;2.70;97.80;;;;;;4994281;28;20218;-86
2020/12/06 02:06:05;;;;;;;26.10;19.37;;;2.80;97.70;;;;;;4994567;28;20542;-87
2020/12/06 02:08:32;;;;;;;32.07;19.33;;;2.80;97.70;;;;;;4993156;28;20558;-88
2020/12/06 02:10:58;;;;;;;28.33;18.87;;;2.90;97.30;;;;;;4993843;28;20203;-86
2020/12/06 02:13:26;;;;;;;26.77;19.30;;;3.00;97.70;;;;;;4990315;28;20229;-85
2020/12/06 02:15:54;;;;;;;26.13;19.20;;;3.00;97.30;;;;;;4996589;28;20196;-88
2020/12/06 02:18:21;;;;;;;24.77;18.30;;;2.90;97.10;;;;;;4993481;28;20270;-87
2020/12/06 02:20:48;;;;;;;23.77;17.07;;;2.90;97.20;;;;;;4992998;28;20195;-87
2020/12/06 02:23:14;;;;;;;26.90;19.90;;;2.80;97.20;;;;;;4994018;28;20227;-87
2020/12/06 02:25:42;;;;;;;25.10;18.87;;;2.80;97.20;;;;;;4993700;28;20206;-87
2020/12/06 02:28:08;;;;;;;27.90;18.77;;;3.00;97.90;;;;;;4989526;28;20239;-85
2020/12/06 02:30:36;;;;;;;26.60;18.33;;;3.10;97.60;;;;;;4990269;28;20206;-88
2020/12/06 02:33:04;;;;;;;27.13;18.93;;;3.30;97.30;;;;;;4986897;28;20235;-88
2020/12/06 02:35:32;;;;;;;23.87;17.67;;;3.40;97.20;;;;;;4990278;28;20203;-89
2020/12/06 02:37:59;;;;;;;24.07;17.47;;;3.30;96.20;;;;;;4999171;28;20588;-88
2020/12/06 02:40:25;;;;;;;24.53;17.43;;;3.10;96.50;;;;;;4995203;28;20208;-87
2020/12/06 02:42:52;;;;;;;24.20;17.53;;;3.10;96.60;;;;;;4991689;28;20225;-87
2020/12/06 02:45:18;;;;;;;24.90;18.43;;;3.20;97.00;;;;;;4991480;28;20685;-87
2020/12/06 02:47:45;;;;;;;26.00;18.97;;;3.10;97.30;;;;;;4996180;28;20228;-88
2020/12/06 02:50:11;;;;;;;26.47;19.00;;;3.00;96.90;;;;;;4997810;28;20271;-89
2020/12/06 02:52:38;;;;;;;27.73;19.33;;;2.90;97.00;;;;;;4992576;28;20231;-86
2020/12/06 02:55:05;;;;;;;27.43;19.63;;;2.90;97.50;;;;;;4989033;28;20204;-87
2020/12/06 02:57:32;;;;;;;29.10;20.00;;;2.80;97.50;;;;;;4988174;28;20247;-89
2020/12/06 02:59:58;;;;;;;26.47;19.07;;;2.80;97.60;;;;;;4994058;28;20227;-89
2020/12/06 03:02:25;;;;;;;27.17;19.43;;;2.80;97.70;;;;;;4993084;28;20222;-87
2020/12/06 03:04:51;;;;;;;28.23;20.30;;;2.80;97.70;;;;;;4995819;28;20574;-88
2020/12/06 03:07:17;;;;;;;28.67;19.30;;;2.80;97.60;;;;;;4994524;28;20281;-91
2020/12/06 03:09:44;;;;;;;28.30;19.20;;;2.70;97.60;;;;;;5001164;28;20250;-90
2020/12/06 03:12:11;;;;;;;29.57;21.00;;;2.70;97.60;;;;;;4999489;28;20226;-87
2020/12/06 03:14:38;;;;;;;27.17;19.97;;;2.70;97.40;;;;;;4995826;28;20472;-91
2020/12/06 03:17:04;;;;;;;28.17;19.57;;;2.70;97.70;;;;;;4980253;28;20224;-91
2020/12/06 03:19:31;;;;;;;26.57;18.90;;;2.70;97.30;;;;;;4991224;28;20204;-86
2020/12/06 03:21:57;;;;;;;25.07;18.43;;;2.70;97.20;;;;;;4998107;28;20230;-86
2020/12/06 03:24:24;;;;;;;26.53;19.10;;;2.70;97.50;;;;;;4993338;28;20702;-86
2020/12/06 03:26:50;;;;;;;26.83;19.00;;;2.60;97.40;;;;;;4983425;28;20220;-87
2020/12/06 03:29:18;;;;;;;26.33;19.53;;;2.60;97.50;;;;;;4982164;28;20230;-90
2020/12/06 03:31:44;;;;;;;26.93;19.73;;;2.50;97.40;;;;;;4982380;28;20322;-91
2020/12/06 03:34:11;;;;;;;28.00;18.63;;;2.50;97.80;;;;;;4994155;28;20650;-88
2020/12/06 03:36:37;;;;;;;24.00;18.03;;;2.50;97.70;;;;;;4998534;28;20553;-87
2020/12/06 03:39:03;;;;;;;23.73;17.27;;;2.80;98.20;;;;;;4995754;28;20257;-88
2020/12/06 03:41:30;;;;;;;22.83;17.40;;;2.90;97.40;;;;;;5000502;28;20310;-86
2020/12/06 03:43:56;;;;;;;24.43;16.90;;;2.90;97.30;;;;;;5001892;28;20204;-88
2020/12/06 03:46:24;;;;;;;23.47;17.20;;;3.00;97.30;;;;;;4991486;28;20236;-86
2020/12/06 03:48:50;;;;;;;23.67;17.50;;;3.00;96.40;;;;;;4999078;28;20224;-87
2020/12/06 03:51:17;;;;;;;22.70;17.20;;;3.00;96.60;;;;;;4991771;28;20230;-87
2020/12/06 03:53:43;;;;;;;22.27;16.83;;;3.00;95.90;;;;;;4997152;28;20222;-86
2020/12/06 03:56:10;;;;;;;25.70;18.40;;;3.00;95.90;;;;;;4997833;28;20204;-86
2020/12/06 03:58:37;;;;;;;23.80;17.50;;;2.80;95.40;;;;;;4997480;28;20211;-86
2020/12/06 04:01:03;;;;;;;23.63;17.30;;;2.70;96.20;;;;;;5000483;28;20401;-87
2020/12/06 04:03:31;;;;;;;24.73;17.73;;;2.70;96.50;;;;;;4989596;28;20564;-90
2020/12/06 04:05:58;;;;;;;26.33;18.20;;;2.70;96.40;;;;;;4980912;28;20192;-89
2020/12/06 04:08:24;;;;;;;26.33;18.63;;;2.80;97.20;;;;;;4979624;28;20357;-86
2020/12/06 04:10:51;;;;;;;26.50;18.87;;;2.70;96.80;;;;;;4979407;28;20548;-86
2020/12/06 04:13:17;;;;;;;29.77;20.03;;;2.70;96.90;;;;;;4977922;28;20231;-87
2020/12/06 04:15:44;;;;;;;34.60;21.30;;;2.70;96.90;;;;;;4980144;28;20208;-87
2020/12/06 04:18:10;;;;;;;41.77;23.10;;;2.70;96.90;;;;;;4979408;28;20231;-87
2020/12/06 04:20:38;;;;;;;38.33;23.07;;;2.70;96.80;;;;;;4986253;28;20662;-90
2020/12/06 04:23:04;;;;;;;38.57;22.90;;;2.50;97.20;;;;;;4977119;28;21066;-86
2020/12/06 04:25:31;;;;;;;32.37;20.43;;;2.60;98.00;;;;;;4978483;28;20711;-88
2020/12/06 04:27:57;;;;;;;34.80;21.73;;;2.60;97.60;;;;;;4988068;28;20246;-88
2020/12/06 04:30:24;;;;;;;35.17;21.87;;;2.50;97.50;;;;;;4983527;28;20204;-90
2020/12/06 04:32:50;;;;;;;45.20;23.00;;;2.50;97.20;;;;;;4981473;28;20219;-86
2020/12/06 04:35:17;;;;;;;43.93;22.47;;;2.50;97.60;;;;;;4983613;28;20203;-92
2020/12/06 04:37:44;;;;;;;43.77;23.03;;;2.40;97.80;;;;;;4981658;28;20230;-85
2020/12/06 04:40:11;;;;;;;56.97;23.93;;;2.40;97.80;;;;;;4978003;28;20208;-90
2020/12/06 04:42:37;;;;;;;52.10;24.70;;;2.60;98.30;;;;;;4978636;28;20224;-89
2020/12/06 04:45:04;;;;;;;60.00;24.17;;;2.40;97.60;;;;;;4981366;28;22326;-87
2020/12/06 04:47:44;;;;;;;67.33;26.20;;;2.40;97.80;;;;;;4980333;28;20701;-89
2020/12/06 04:50:20;;;;;;;82.37;25.67;;;2.40;98.10;;;;;;4978778;28;20247;-89
2020/12/06 04:52:56;;;;;;;47.67;24.40;;;2.20;98.00;;;;;;4979434;28;20231;-86
2020/12/06 04:55:26;;;;;;;41.63;23.43;;;2.40;98.90;;;;;;4976735;28;20207;-89
2020/12/06 04:57:55;;;;;;;44.40;24.20;;;2.40;98.60;;;;;;4981355;28;20285;-90
2020/12/06 05:00:31;;;;;;;74.73;25.50;;;2.40;98.40;;;;;;4980576;28;20225;-86
2020/12/06 05:02:59;;;;;;;84.50;26.43;;;2.50;98.40;;;;;;4980018;28;20234;-89
2020/12/06 05:05:36;;;;;;;107.13;27.47;;;2.40;97.80;;;;;;4978324;28;20206;-86
2020/12/06 05:08:06;;;;;;;40.90;23.67;;;2.40;98.30;;;;;;4979380;28;20235;-87
2020/12/06 05:10:37;;;;;;;47.50;23.57;;;2.30;98.40;;;;;;4980261;28;20706;-84
2020/12/06 05:13:04;;;;;;;54.20;23.80;;;2.30;98.30;;;;;;4992688;28;20237;-89
2020/12/06 05:15:31;;;;;;;46.30;23.70;;;2.20;98.20;;;;;;5002947;28;20213;-86
2020/12/06 05:17:59;;;;;;;59.67;24.73;;;2.10;98.80;;;;;;4999520;28;20266;-86
2020/12/06 05:20:25;;;;;;;41.60;24.53;;;2.30;99.10;;;;;;4981727;28;20210;-82
2020/12/06 05:22:52;;;;;;;48.73;24.63;;;2.20;98.90;;;;;;4979312;28;20231;-87
2020/12/06 05:25:20;;;;;;;44.17;24.73;;;2.20;99.10;;;;;;4983818;28;20503;-87
2020/12/06 05:27:46;;;;;;;68.77;27.10;;;2.20;99.00;;;;;;4983757;28;20230;-86
2020/12/06 05:30:13;;;;;;;43.23;25.13;;;2.30;99.70;;;;;;4998760;28;21705;-86
2020/12/06 05:32:40;;;;;;;56.13;27.00;;;2.30;99.70;;;;;;4981406;28;20239;-85
2020/12/06 05:35:10;;;;;;;62.97;25.93;;;2.30;99.40;;;;;;4991111;28;20223;-88
2020/12/06 05:37:37;;;;;;;53.30;26.37;;;2.30;99.40;;;;;;4993996;28;20219;-89
2020/12/06 05:40:05;;;;;;;44.50;26.07;;;2.20;99.00;;;;;;4998295;28;20222;-89
2020/12/06 05:42:33;;;;;;;63.70;26.63;;;2.30;99.70;;;;;;4991419;28;20643;-88
2020/12/06 05:45:00;;;;;;;53.50;23.37;;;2.30;99.00;;;;;;5000278;28;20203;-89
2020/12/06 05:47:28;;;;;;;49.73;25.47;;;2.20;98.90;;;;;;4995059;28;20227;-88
2020/12/06 05:49:55;;;;;;;52.23;24.33;;;2.10;98.60;;;;;;4996746;28;20219;-87
2020/12/06 05:52:22;;;;;;;50.27;22.97;;;2.20;98.60;;;;;;4999217;28;20230;-88
2020/12/06 05:54:48;;;;;;;66.90;23.77;;;2.30;98.80;;;;;;4998333;28;20214;-88
2020/12/06 05:57:15;;;;;;;75.20;24.53;;;2.20;98.30;;;;;;4987363;28;20747;-89
2020/12/06 05:59:43;;;;;;;48.20;23.53;;;2.20;98.50;;;;;;4994166;28;20249;-91
2020/12/06 06:02:10;;;;;;;56.50;23.50;;;2.10;98.60;;;;;;4988655;28;20226;-87
2020/12/06 06:04:40;;;;;;;54.80;24.27;;;2.00;98.60;;;;;;4988292;28;20210;-88
2020/12/06 06:07:13;;;;;;;41.60;23.37;;;2.00;99.00;;;;;;4986219;28;20230;-87
2020/12/06 06:09:42;;;;;;;62.00;25.60;;;2.10;99.00;;;;;;4990954;28;20229;-89
2020/12/06 06:12:31;;;;;;;49.37;22.53;;;2.20;99.00;;;;;;4994857;28;20234;-87
2020/12/06 06:15:00;;;;;;;61.77;24.50;;;2.30;99.00;;;;;;4997196;28;20203;-89
2020/12/06 06:17:28;;;;;;;43.97;23.57;;;2.40;98.40;;;;;;4992061;28;20230;-86
2020/12/06 06:19:54;;;;;;;49.73;23.63;;;2.40;98.40;;;;;;4993902;28;20207;-89
2020/12/06 06:22:27;;;;;;;40.03;23.43;;;2.40;98.20;;;;;;4994911;28;20229;-86
2020/12/06 06:24:55;;;;;;;48.67;24.37;;;2.50;98.70;;;;;;4984703;28;20207;-88
2020/12/06 06:27:22;;;;;;;60.30;25.47;;;2.50;97.80;;;;;;4979030;28;20222;-91
2020/12/06 06:29:49;;;;;;;45.43;25.57;;;2.40;97.30;;;;;;4981227;28;21897;-89
2020/12/06 06:32:19;;;;;;;41.40;24.23;;;2.40;97.60;;;;;;4980669;28;20236;-89
2020/12/06 06:34:46;;;;;;;43.27;24.67;;;2.50;97.90;;;;;;4986861;28;20212;-88
2020/12/06 06:37:14;;;;;;;45.57;26.03;;;2.50;98.00;;;;;;4987499;28;20531;-89
2020/12/06 06:39:41;;;;;;;46.83;25.43;;;2.50;97.30;;;;;;4983280;28;20661;-87
2020/12/06 06:42:10;;;;;;;46.73;27.30;;;2.30;97.80;;;;;;4988659;28;20281;-89
2020/12/06 06:44:38;;;;;;;53.40;27.87;;;2.30;97.90;;;;;;4998041;28;20578;-90
2020/12/06 06:47:06;;;;;;;55.33;27.83;;;2.20;98.30;;;;;;4991678;28;20361;-86
2020/12/06 06:49:50;;;;;;;51.87;28.90;;;2.30;98.40;;;;;;5004557;28;20225;-89
2020/12/06 06:52:18;;;;;;;58.03;29.67;;;2.20;98.20;;;;;;5002888;28;20604;-87
2020/12/06 06:54:48;;;;;;;55.10;28.17;;;2.20;98.40;;;;;;4997653;28;20563;-88
2020/12/06 06:57:16;;;;;;;53.90;28.07;;;2.20;99.00;;;;;;4995312;28;20230;-88
2020/12/06 06:59:45;;;;;;;53.07;28.87;;;2.40;98.70;;;;;;5006992;28;20281;-87
2020/12/06 07:02:36;;;;;;;56.53;28.53;;;2.40;98.10;;;;;;4993951;28;20566;-88
2020/12/06 07:05:05;;;;;;;58.97;27.07;;;2.40;97.60;;;;;;4983199;28;20212;-88
2020/12/06 07:07:43;;;;;;;52.37;28.60;;;2.50;97.80;;;;;;4994695;28;20230;-89
2020/12/06 07:10:11;;;;;;;52.17;27.70;;;2.40;97.90;;;;;;4992478;28;20219;-89
2020/12/06 07:12:38;;;;;;;55.53;28.47;;;2.30;97.70;;;;;;4998196;28;20237;-84
2020/12/06 07:15:13;;;;;;;52.90;27.77;;;2.30;97.90;;;;;;5002660;28;20210;-85
2020/12/06 07:17:40;;;;;;;55.27;27.40;;;2.40;98.60;;;;;;4996317;28;20227;-84
2020/12/06 07:20:09;;;;;;;56.83;28.53;;;2.40;98.10;;;;;;5003095;28;20211;-89
2020/12/06 07:22:35;;;;;;;61.33;28.53;;;2.40;98.20;;;;;;5002530;28;20299;-85
2020/12/06 07:25:03;;;;;;;59.47;27.77;;;2.50;98.20;;;;;;5003979;28;20539;-90
2020/12/06 07:27:29;;;;;;;63.73;28.37;;;2.40;98.40;;;;;;5003491;28;20235;-88
2020/12/06 07:29:56;;;;;;;61.37;28.07;;;2.30;98.80;;;;;;5000082;28;20229;-87
2020/12/06 07:32:22;;;;;;;61.63;28.23;;;2.30;99.00;;;;;;5003542;28;20646;-84
2020/12/06 07:34:50;;;;;;;63.53;27.87;;;2.30;98.90;;;;;;4997505;28;20218;-87
2020/12/06 07:37:18;;;;;;;67.20;27.13;;;2.40;99.00;;;;;;5000614;28;20239;-88
2020/12/06 07:39:45;;;;;;;61.03;25.80;;;2.40;99.20;;;;;;5001780;28;20207;-88
2020/12/06 07:42:18;;;;;;;59.13;26.03;;;2.40;99.20;;;;;;5002168;28;20230;-87
2020/12/06 07:44:46;;;;;;;61.67;25.50;;;2.40;99.30;;;;;;4999962;28;20223;-84
2020/12/06 07:47:12;;;;;;;55.20;24.07;;;2.60;99.70;;;;;;5000248;28;20225;-90
2020/12/06 07:49:43;;;;;;;54.50;24.17;;;2.60;99.10;;;;;;5001326;28;20230;-87
2020/12/06 07:52:14;;;;;;;53.60;23.40;;;2.80;99.00;;;;;;4991519;28;20223;-87
2020/12/06 07:54:51;;;;;;;55.07;22.77;;;2.90;98.60;;;;;;4994192;28;20196;-84
2020/12/06 07:57:24;;;;;;;49.23;22.90;;;3.00;98.20;;;;;;5002021;28;20227;-88
2020/12/06 07:59:52;;;;;;;45.87;21.17;;;2.90;97.70;;;;;;5002366;28;20215;-86
2020/12/06 08:02:19;;;;;;;42.47;20.73;;;2.90;97.70;;;;;;5002557;28;20236;-88
2020/12/06 08:04:45;;;;;;;43.40;20.70;;;3.00;97.70;;;;;;5005039;28;20204;-85
2020/12/06 08:07:18;;;;;;;44.20;20.47;;;3.10;97.90;;;;;;5002547;28;20226;-88
2020/12/06 08:09:48;;;;;;;42.93;20.23;;;3.00;97.40;;;;;;4998788;28;20251;-87
2020/12/06 08:12:16;;;;;;;35.90;17.67;;;3.10;97.20;;;;;;4998755;28;20230;-84
2020/12/06 08:14:43;;;;;;;38.60;18.93;;;3.20;96.70;;;;;;4999424;28;20207;-85
2020/12/06 08:17:09;;;;;;;40.40;19.13;;;3.10;96.10;;;;;;4998996;28;20225;-89
2020/12/06 08:19:38;;;;;;;34.73;18.67;;;3.10;96.70;;;;;;4994643;28;20548;-86
2020/12/06 08:22:05;;;;;;;34.47;17.93;;;3.10;96.90;;;;;;4996093;28;20243;-88
2020/12/06 08:24:33;;;;;;;32.97;16.87;;;3.20;97.30;;;;;;4988287;28;20196;-86
2020/12/06 08:27:02;;;;;;;32.27;17.07;;;3.20;96.80;;;;;;4994427;28;20305;-86
2020/12/06 08:29:41;;;;;;;29.30;16.03;;;3.20;96.80;;;;;;4998850;28;20226;-85
2020/12/06 08:32:08;;;;;;;29.13;15.67;;;3.30;96.60;;;;;;4998050;28;20230;-88
2020/12/06 08:34:35;;;;;;;27.47;15.03;;;3.40;96.20;;;;;;4989404;28;20202;-84
2020/12/06 08:37:18;;;;;;;29.97;16.53;;;3.40;96.20;;;;;;4984550;28;20782;-85
2020/12/06 08:39:45;;;;;;;28.03;15.47;;;3.50;96.00;;;;;;4985224;28;20212;-86
2020/12/06 08:42:19;;;;;;;27.50;15.13;;;3.50;95.70;;;;;;4993315;28;20234;-83
2020/12/06 08:44:56;;;;;;;29.33;16.07;;;3.50;95.40;;;;;;4994133;28;20263;-84
2020/12/06 08:47:25;;;;;;;27.43;14.97;;;3.50;95.80;;;;;;4991365;28;20223;-82
2020/12/06 08:50:04;;;;;;;28.83;15.73;;;3.60;95.50;;;;;;4990717;28;20217;-84
2020/12/06 08:52:30;;;;;;;28.43;15.13;;;3.50;95.10;;;;;;4990365;28;20234;-87
2020/12/06 08:54:58;;;;;;;23.87;14.07;;;3.50;95.70;;;;;;4990465;28;20210;-83
2020/12/06 08:57:27;;;;;;;25.00;14.87;;;3.80;95.70;;;;;;4991628;28;20243;-85
2020/12/06 08:59:54;;;;;;;23.93;13.90;;;3.80;94.80;;;;;;4995291;28;20220;-82
2020/12/06 09:02:24;;;;;;;24.00;14.00;;;3.90;94.80;;;;;;4980206;28;20271;-86
2020/12/06 09:04:56;;;;;;;23.33;13.63;;;3.90;94.80;;;;;;4973542;28;20208;-86
2020/12/06 09:07:28;;;;;;;22.43;13.70;;;3.80;94.80;;;;;;4983064;28;20223;-85
2020/12/06 09:09:55;;;;;;;23.70;14.13;;;3.80;94.80;;;;;;4996160;28;20211;-83
2020/12/06 09:12:22;;;;;;;25.80;14.90;;;3.80;94.80;;;;;;4992673;28;20241;-84
2020/12/06 09:14:49;;;;;;;25.90;13.90;;;3.80;94.80;;;;;;4996667;28;20196;-83
2020/12/06 09:17:15;;;;;;;21.23;13.83;;;4.00;94.90;;;;;;4993157;28;20244;-82
2020/12/06 09:19:42;;;;;;;25.13;14.43;;;4.00;94.20;;;;;;4990367;28;20243;-83
2020/12/06 09:22:09;;;;;;;25.73;14.83;;;4.20;94.20;;;;;;4995928;28;20235;-85
2020/12/06 09:24:38;;;;;;;22.60;14.20;;;4.20;94.10;;;;;;4993920;28;20196;-84
2020/12/06 09:27:07;;;;;;;21.90;13.73;;;4.40;93.90;;;;;;4989878;28;20235;-85
2020/12/06 09:29:35;;;;;;;22.43;13.87;;;4.40;93.50;;;;;;4990432;28;20218;-86
2020/12/06 09:32:02;;;;;;;23.53;13.53;;;4.50;93.40;;;;;;4987830;28;20227;-84
2020/12/06 09:34:30;;;;;;;20.73;12.97;;;4.60;93.30;;;;;;4991727;28;20204;-84
2020/12/06 09:36:58;;;;;;;20.27;12.90;;;4.70;92.70;;;;;;4986766;28;20254;-90
2020/12/06 09:39:26;;;;;;;21.90;13.27;;;4.70;92.70;;;;;;4986917;28;20212;-82
2020/12/06 09:41:56;;;;;;;20.87;12.77;;;4.70;92.80;;;;;;4989910;28;20756;-84
2020/12/06 09:44:29;;;;;;;20.83;14.17;;;4.80;92.90;;;;;;4989540;28;20199;-83
2020/12/06 09:46:56;;;;;;;21.60;13.17;;;5.00;92.70;;;;;;4990380;28;20226;-83
2020/12/06 09:49:29;;;;;;;20.60;12.97;;;5.00;92.40;;;;;;4990406;28;20253;-82
2020/12/06 09:51:57;;;;;;;15.77;9.60;;;5.10;92.30;;;;;;4985973;28;20319;-82
2020/12/06 09:54:24;;;;;;;14.80;9.20;;;4.90;91.60;;;;;;4989753;28;20200;-88
2020/12/06 09:56:51;;;;;;;15.80;10.00;;;4.60;91.80;;;;;;4994187;28;20282;-85
2020/12/06 09:59:17;;;;;;;17.40;10.50;;;4.70;92.70;;;;;;4992642;28;20220;-83
2020/12/06 10:01:44;;;;;;;18.30;10.83;;;5.00;92.40;;;;;;4990196;28;20223;-82
2020/12/06 10:04:10;;;;;;;17.87;10.13;;;5.30;91.70;;;;;;4990796;28;20238;-83
2020/12/06 10:06:37;;;;;;;15.53;10.13;;;5.50;91.30;;;;;;4990669;28;20553;-85
2020/12/06 10:09:04;;;;;;;15.03;10.30;;;5.60;90.80;;;;;;4991909;28;20576;-84
2020/12/06 10:11:30;;;;;;;15.77;10.43;;;5.60;90.20;;;;;;4992112;28;20273;-87
2020/12/06 10:13:56;;;;;;;15.43;10.23;;;5.60;90.40;;;;;;4990653;28;20231;-86
2020/12/06 10:16:23;;;;;;;14.10;9.47;;;5.70;90.50;;;;;;4992297;28;20706;-87
2020/12/06 10:18:49;;;;;;;12.77;8.83;;;5.70;89.80;;;;;;4992936;28;20207;-86
2020/12/06 10:21:16;;;;;;;13.13;8.57;;;5.50;90.60;;;;;;5000244;28;20206;-83
2020/12/06 10:23:45;;;;;;;13.63;9.00;;;5.60;90.40;;;;;;4995815;28;20196;-84
2020/12/06 10:26:12;;;;;;;12.43;8.77;;;5.70;90.90;;;;;;4996619;28;20206;-87
2020/12/06 10:28:38;;;;;;;12.23;8.47;;;6.20;90.40;;;;;;5004143;28;20567;-84
2020/12/06 10:31:11;;;;;;;10.93;8.00;;;6.60;90.00;;;;;;5001190;28;20263;-88
2020/12/06 10:34:12;;;;;;;9.80;7.40;;;6.70;87.60;;;;;;4999127;28;20227;-85
2020/12/06 10:36:39;;;;;;;7.32;5.25;;;7.30;83.90;;;;;;5000545;28;20310;-86
2020/12/06 10:39:06;;;;;;;8.52;5.95;;;7.70;80.60;;;;;;5011652;28;20200;-88
2020/12/06 10:41:33;;;;;;;8.90;6.68;;;7.90;78.80;;;;;;5008019;28;20231;-88
2020/12/06 10:47:33;;;;;;;8.32;5.65;;;7.80;79.30;;;;;;5014586;28;20199;-87
2020/12/06 10:50:00;;;;;;;9.15;5.50;;;8.10;77.80;;;;;;5004798;28;20283;-87
2020/12/06 10:52:26;;;;;;;7.38;5.35;;;8.20;75.60;;;;;;5004764;28;20263;-87
2020/12/06 10:58:16;;;;;;;7.88;5.40;;;8.50;73.40;;;;;;5003814;28;20190;-87
2020/12/06 11:00:50;;;;;;;8.00;5.53;;;8.20;74.90;;;;;;5383439;23;20225;-89
2020/12/06 11:04:01;;;;;;;8.95;6.05;;;7.90;76.00;;;;;;5084625;28;20203;-88
2020/12/06 11:09:53;;;;;;;9.52;6.32;;;7.50;79.40;;;;;;5084232;28;20225;-87
2020/12/06 11:12:32;;;;;;;8.13;6.07;;;7.40;80.20;;;;;;5079967;28;20288;-90
2020/12/06 11:14:59;;;;;;;9.13;6.33;;;7.10;80.30;;;;;;5076230;28;20316;-89
2020/12/06 11:17:34;;;;;;;9.67;6.93;;;7.10;81.60;;;;;;5072447;28;20276;-91
2020/12/06 11:20:00;;;;;;;9.63;6.90;;;7.00;83.30;;;;;;5078103;28;20232;-86
2020/12/06 11:22:27;;;;;;;10.27;7.30;;;6.80;82.70;;;;;;5074348;28;20197;-89
2020/12/06 11:25:00;;;;;;;11.77;7.43;;;6.80;83.70;;;;;;5070812;28;20743;-86
2020/12/06 11:27:26;;;;;;;11.77;8.07;;;6.60;84.60;;;;;;5071360;28;20648;-86
2020/12/06 11:29:53;;;;;;;13.17;7.90;;;6.40;86.20;;;;;;5068873;28;20229;-86
2020/12/06 11:32:24;;;;;;;11.87;8.30;;;6.20;86.80;;;;;;5074117;28;20196;-89
2020/12/06 11:34:54;;;;;;;11.10;7.60;;;6.20;87.90;;;;;;5074594;28;20257;-84
2020/12/06 11:37:21;;;;;;;12.53;8.53;;;5.90;87.90;;;;;;5086992;28;20193;-87
2020/12/06 11:39:47;;;;;;;12.63;8.73;;;5.90;89.50;;;;;;5063307;28;20230;-86
2020/12/06 11:42:14;;;;;;;13.43;9.17;;;5.90;89.50;;;;;;5064527;28;20674;-87
2020/12/06 11:44:41;;;;;;;14.57;9.33;;;5.70;89.40;;;;;;5066410;28;20225;-84
2020/12/06 11:47:07;;;;;;;12.93;9.53;;;5.80;89.50;;;;;;5064174;28;20697;-88
2020/12/06 11:49:36;;;;;;;14.27;9.87;;;5.90;89.50;;;;;;5065916;28;20229;-90
2020/12/06 11:52:09;;;;;;;13.60;9.40;;;5.70;89.40;;;;;;5067807;28;20258;-84
2020/12/06 11:54:36;;;;;;;15.30;9.50;;;5.90;90.00;;;;;;5077906;28;20307;-85
2020/12/06 11:57:02;;;;;;;14.67;8.87;;;5.70;89.40;;;;;;5078312;28;20628;-90
2020/12/06 11:59:30;;;;;;;14.53;9.47;;;5.60;90.20;;;;;;5067501;28;20259;-86
2020/12/06 12:01:56;;;;;;;13.70;8.83;;;5.70;90.00;;;;;;5078083;28;20207;-88
2020/12/06 12:04:23;;;;;;;15.33;9.10;;;5.60;90.20;;;;;;5077549;28;20431;-85
2020/12/06 12:06:50;;;;;;;15.90;10.20;;;5.70;90.30;;;;;;5075480;28;20197;-85
2020/12/06 12:09:17;;;;;;;14.77;9.33;;;5.80;89.50;;;;;;5067608;28;20222;-83
2020/12/06 12:11:49;;;;;;;16.83;9.93;;;5.90;90.20;;;;;;5077810;28;20205;-85
2020/12/06 12:14:24;;;;;;;16.40;9.90;;;5.80;89.50;;;;;;5073341;28;20211;-89
2020/12/06 12:16:51;;;;;;;14.40;9.03;;;5.70;90.40;;;;;;5072552;28;20955;-87
2020/12/06 12:19:18;;;;;;;15.63;9.83;;;5.70;90.40;;;;;;5068885;28;20562;-88
2020/12/06 12:21:44;;;;;;;15.67;9.23;;;5.70;90.40;;;;;;5068243;28;20312;-86
2020/12/06 12:24:11;;;;;;;15.40;9.93;;;5.80;90.50;;;;;;5070277;28;20567;-87
2020/12/06 12:26:38;;;;;;;13.63;8.57;;;5.60;89.40;;;;;;5072362;28;20217;-87
2020/12/06 12:29:05;;;;;;;11.90;7.80;;;5.60;90.30;;;;;;5070088;28;21320;-86
2020/12/06 12:31:32;;;;;;;13.77;8.07;;;5.60;90.50;;;;;;5070718;28;20205;-87
2020/12/06 12:33:58;;;;;;;9.87;6.70;;;5.60;90.60;;;;;;5071614;28;20684;-86
2020/12/06 12:36:30;;;;;;;15.13;8.17;;;5.70;90.60;;;;;;5071483;28;20224;-85
2020/12/06 12:38:59;;;;;;;12.37;7.27;;;5.70;90.30;;;;;;5073514;28;20671;-84
2020/12/06 12:41:34;;;;;;;11.83;7.53;;;5.70;90.30;;;;;;5075127;28;20225;-85
2020/12/06 12:44:02;;;;;;;9.20;6.47;;;5.60;90.20;;;;;;5069343;28;20204;-85
2020/12/06 12:46:37;;;;;;;9.20;6.07;;;5.80;91.30;;;;;;5069730;28;20280;-85
2020/12/06 12:49:05;;;;;;;11.10;6.67;;;5.90;90.40;;;;;;5071992;28;20201;-84
2020/12/06 12:51:32;;;;;;;10.43;6.83;;;5.90;89.60;;;;;;5076335;28;20197;-89
2020/12/06 12:54:00;;;;;;;8.90;6.37;;;5.80;90.10;;;;;;5069386;28;20265;-87
2020/12/06 12:56:31;;;;;;;10.87;6.40;;;5.90;90.40;;;;;;5067121;28;20229;-87